Time;durP1;ratioP1;P1;durP2;ratioP2;P2;SDS_P1;SDS_P2;PMS_P1;PMS_P2;Temp;Humidity;BMP_temperature;BMP_pressure;BME280_temperature;BME280_humidity;BME280_pressure;Samples;Min_cycle;Max_cycle;Signal;HPM_P1;HPM_P2
2022/06/06 00:01:57;;;;;;;4.80;3.60;;;;;;;14.65;54.84;100738.03;5105212;28;20024;-73
2022/06/06 00:04:26;;;;;;;8.85;4.00;;;;;;;14.67;54.86;100722.31;5104924;28;20454;-73
2022/06/06 00:06:53;;;;;;;5.63;4.40;;;;;;;14.60;54.73;100729.44;5104828;28;20043;-74
2022/06/06 00:09:19;;;;;;;9.85;4.15;;;;;;;14.61;54.94;100737.25;5105014;28;20027;-73
2022/06/06 00:11:44;;;;;;;6.88;3.67;;;;;;;14.56;54.77;100726.03;5104843;28;20084;-73
2022/06/06 00:14:12;;;;;;;5.00;3.55;;;;;;;14.59;55.09;100728.56;5086707;28;20031;-73
2022/06/06 00:16:38;;;;;;;5.43;4.00;;;;;;;14.56;55.23;100730.38;5104534;28;20032;-73
2022/06/06 00:19:04;;;;;;;6.05;4.43;;;;;;;14.53;55.39;100720.00;5086053;28;20028;-73
2022/06/06 00:21:30;;;;;;;7.30;4.28;;;;;;;14.50;55.53;100719.16;5104709;28;20056;-73
2022/06/06 00:23:59;;;;;;;7.45;4.40;;;;;;;14.52;56.02;100715.66;5104176;28;20032;-73
2022/06/06 00:26:26;;;;;;;5.10;4.30;;;;;;;14.43;56.08;100708.84;5104597;28;20027;-73
2022/06/06 00:28:51;;;;;;;10.18;4.50;;;;;;;14.49;56.36;100721.78;5104757;28;20046;-73
2022/06/06 00:36:45;;;;;;;7.82;4.18;;;;;;;14.37;56.74;100715.94;5104707;28;20027;-73
2022/06/06 00:39:13;;;;;;;7.70;4.53;;;;;;;14.38;56.69;100724.63;5104265;28;20028;-73
2022/06/06 00:41:45;;;;;;;8.55;5.47;;;;;;;14.41;56.72;100723.72;5104181;28;20012;-73
2022/06/06 00:44:12;;;;;;;;;;;;;;;14.47;56.70;100732.28;5104701;28;20081;-73
2022/06/06 00:46:42;;;;;;;13.40;4.88;;;;;;;14.37;57.09;100726.38;5104265;28;20001;-73
2022/06/06 00:49:33;;;;;;;9.00;4.53;;;;;;;14.32;57.20;100712.56;5085727;28;20020;-73
2022/06/06 00:52:01;;;;;;;7.43;4.20;;;;;;;14.33;56.87;100721.25;5103419;28;20036;-73
2022/06/06 00:54:26;;;;;;;6.07;3.92;;;;;;;14.31;56.93;100717.81;5104046;28;20027;-73
2022/06/06 00:57:09;;;;;;;7.57;4.35;;;;;;;14.33;56.72;100719.47;5103649;28;20055;-73
2022/06/06 00:59:37;;;;;;;7.22;4.60;;;;;;;14.27;56.63;100711.78;5104153;28;20035;-73
2022/06/06 01:02:07;;;;;;;4.93;3.65;;;;;;;14.28;56.30;100713.47;5103999;28;20024;-73
2022/06/06 01:04:33;;;;;;;6.00;4.28;;;;;;;14.30;55.96;100706.50;5103818;28;20030;-73
2022/06/06 01:06:59;;;;;;;5.55;3.85;;;;;;;14.33;55.67;100695.13;5103772;28;20023;-73
2022/06/06 01:09:25;;;;;;;7.20;4.82;;;;;;;14.34;56.01;100697.72;5104194;28;20538;-74
2022/06/06 01:11:56;;;;;;;5.35;3.78;;;;;;;14.33;56.12;100701.19;5103826;28;20024;-73
2022/06/06 01:14:25;;;;;;;6.65;4.40;;;;;;;14.30;56.05;100703.00;5103894;28;20026;-73
2022/06/06 01:17:25;;;;;;;5.57;3.85;;;;;;;14.30;56.10;100710.84;5103597;28;20024;-73
2022/06/06 01:20:12;;;;;;;7.00;3.88;;;;;;;14.24;56.18;100704.88;5103894;28;20027;-73
2022/06/06 01:22:46;;;;;;;5.38;4.30;;;;;;;14.21;56.41;100710.16;5103919;28;20035;-73
2022/06/06 01:25:34;;;;;;;8.18;4.68;;;;;;;14.17;56.73;100710.22;5087160;28;20049;-73
2022/06/06 01:28:23;;;;;;;5.47;4.32;;;;;;;14.11;56.68;100719.91;5103936;28;20024;-74
2022/06/06 01:30:55;;;;;;;8.23;4.35;;;;;;;13.99;56.97;100712.28;5103166;28;20089;-74
2022/06/06 01:33:21;;;;;;;6.20;4.88;;;;;;;13.93;57.04;100715.00;5103580;28;20031;-74
2022/06/06 01:35:50;;;;;;;4.35;3.25;;;;;;;13.87;56.28;100708.13;5102573;28;20028;-73
2022/06/06 01:38:19;;;;;;;4.75;3.28;;;;;;;13.95;55.69;100716.69;5085018;28;20134;-73
2022/06/06 01:41:05;;;;;;;4.68;2.78;;;;;;;14.05;54.70;100713.91;5103301;28;20046;-74
2022/06/06 01:43:41;;;;;;;4.88;3.20;;;;;;;14.08;54.51;100716.47;5103369;28;20088;-74
2022/06/06 01:46:17;;;;;;;4.57;2.70;;;;;;;14.13;53.83;100714.66;5103102;28;20027;-72
2022/06/06 01:48:43;;;;;;;4.75;3.17;;;;;;;14.20;53.27;100721.47;5103044;28;20021;-73
2022/06/06 01:51:16;;;;;;;5.55;3.00;;;;;;;14.27;52.78;100719.59;5103271;28;20044;-72
2022/06/06 01:53:42;;;;;;;4.20;2.72;;;;;;;14.35;52.30;100704.66;5085260;28;20020;-71
2022/06/06 01:56:12;;;;;;;4.78;2.65;;;;;;;14.37;52.13;100697.66;5084788;28;20615;-72
2022/06/06 01:58:38;;;;;;;6.85;3.13;;;;;;;14.35;52.21;100685.50;5103468;28;20046;-72
2022/06/06 02:01:04;;;;;;;3.25;2.75;;;;;;;14.38;52.12;100680.22;5103302;28;20028;-72
2022/06/06 02:03:31;;;;;;;4.15;3.15;;;;;;;14.36;52.54;100668.97;5103046;28;20054;-73
2022/06/06 02:05:57;;;;;;;5.70;3.90;;;;;;;14.30;53.08;100671.66;5102909;28;20084;-72
2022/06/06 02:08:22;;;;;;;4.38;3.17;;;;;;;14.23;53.60;100665.72;5084806;28;20016;-72
2022/06/06 02:10:48;;;;;;;5.50;3.67;;;;;;;14.21;53.80;100677.94;5102940;28;20055;-72
2022/06/06 02:13:15;;;;;;;6.70;3.13;;;;;;;14.11;53.67;100667.69;5102991;28;20020;-72
2022/06/06 02:15:41;;;;;;;5.63;4.22;;;;;;;14.03;53.94;100660.88;5084786;28;20059;-73
2022/06/06 02:18:07;;;;;;;4.22;3.22;;;;;;;13.97;54.00;100670.56;5084446;28;20177;-72
2022/06/06 02:20:33;;;;;;;4.60;3.53;;;;;;;13.93;54.27;100654.97;5102861;28;20475;-72
2022/06/06 02:22:59;;;;;;;6.13;2.83;;;;;;;13.93;53.80;100652.38;5102788;28;20334;-72
2022/06/06 02:25:27;;;;;;;5.38;3.40;;;;;;;13.98;54.25;100658.34;5084691;28;20020;-72
2022/06/06 02:27:53;;;;;;;5.57;4.05;;;;;;;13.94;54.82;100660.16;5084816;28;20020;-73
2022/06/06 02:30:21;;;;;;;6.03;3.83;;;;;;;13.86;55.25;100657.72;5102859;28;20032;-74
2022/06/06 02:32:46;;;;;;;6.88;4.57;;;;;;;13.78;55.61;100646.53;5084511;28;20111;-73
2022/06/06 02:35:17;;;;;;;8.07;3.88;;;;;;;13.78;55.92;100659.59;5102587;28;20111;-72
2022/06/06 02:37:44;;;;;;;5.53;3.70;;;;;;;13.77;55.92;100655.22;5102717;28;20024;-73
2022/06/06 02:40:12;;;;;;;6.18;4.03;;;;;;;13.76;55.76;100650.91;5102857;28;20027;-73
2022/06/06 02:42:38;;;;;;;5.72;3.20;;;;;;;13.77;55.52;100642.19;5102641;28;20016;-73
2022/06/06 02:45:05;;;;;;;6.45;3.40;;;;;;;13.78;55.37;100649.16;5102753;28;20045;-72
2022/06/06 02:47:31;;;;;;;4.13;3.20;;;;;;;13.79;55.00;100640.41;5085624;28;20040;-72
2022/06/06 02:49:56;;;;;;;5.20;3.47;;;;;;;13.83;55.04;100642.09;5106385;28;20026;-73
2022/06/06 02:52:22;;;;;;;5.10;3.28;;;;;;;13.85;54.85;100642.06;5106268;28;20030;-72
2022/06/06 02:54:47;;;;;;;4.45;3.05;;;;;;;13.87;54.71;100633.31;5106449;28;20049;-73
2022/06/06 02:57:13;;;;;;;4.90;2.78;;;;;;;13.93;54.24;100636.72;5105784;28;20540;-73
2022/06/06 02:59:41;;;;;;;2.65;2.20;;;;;;;13.98;54.07;100635.72;5106190;28;20032;-73
2022/06/06 03:02:08;;;;;;;3.72;2.90;;;;;;;14.03;54.15;100640.84;5106034;28;20047;-72
2022/06/06 03:04:34;;;;;;;3.97;2.92;;;;;;;14.06;54.35;100638.19;5105851;28;20030;-72
2022/06/06 03:07:35;;;;;;;5.20;3.38;;;;;;;14.09;54.42;100643.34;5105934;28;20027;-73
2022/06/06 03:10:44;;;;;;;6.85;3.45;;;;;;;14.10;54.57;100629.41;5088106;28;20032;-72
2022/06/06 03:13:36;;;;;;;4.68;3.70;;;;;;;14.07;54.71;100631.22;5096454;28;20028;-72
2022/06/06 03:22:00;;;;;;;5.25;2.92;;;;;;;13.92;54.76;100617.56;5105632;28;20038;-72
2022/06/06 03:24:43;;;;;;;8.35;3.40;;;;;;;13.93;55.22;100618.44;5105621;28;20020;-72
2022/06/06 03:27:43;;;;;;;4.60;3.63;;;;;;;13.98;55.10;100620.06;5105348;28;20044;-72
2022/06/06 03:30:15;;;;;;;7.43;3.40;;;;;;;13.98;55.42;100613.97;5022665;28;20038;-73
2022/06/06 03:33:01;;;;;;;6.85;3.35;;;;;;;13.98;55.42;100611.38;5022446;28;20033;-73
2022/06/06 03:36:10;;;;;;;7.10;4.40;;;;;;;13.94;55.33;100612.31;5022618;28;20089;-72
2022/06/06 03:38:59;;;;;;;4.35;3.30;;;;;;;13.91;55.75;100604.56;5022528;28;20041;-73
2022/06/06 03:41:40;;;;;;;5.53;3.85;;;;;;;13.93;56.12;100611.44;5022375;28;20106;-73
2022/06/06 03:44:34;;;;;;;7.07;4.10;;;;;;;13.98;56.38;100608.75;5022479;28;20030;-72
2022/06/06 03:47:15;;;;;;;5.82;4.32;;;;;;;14.05;56.25;100602.53;4982975;28;20049;-72
2022/06/06 03:49:59;;;;;;;7.50;3.65;;;;;;;14.08;56.11;100599.88;4983195;28;20043;-73
2022/06/06 03:52:48;;;;;;;6.75;3.70;;;;;;;14.15;55.89;100590.16;4983140;28;20046;-73
2022/06/06 03:55:35;;;;;;;4.70;3.22;;;;;;;14.22;55.92;100596.09;4983273;28;20037;-74
2022/06/06 03:58:03;;;;;;;4.50;3.35;;;;;;;14.30;55.75;100594.19;4982822;28;20050;-74
2022/06/06 04:00:32;;;;;;;4.60;3.20;;;;;;;14.36;55.46;100575.78;4982509;28;20038;-73
2022/06/06 04:02:59;;;;;;;5.18;2.85;;;;;;;14.48;55.40;100582.50;4982803;28;21142;-72
2022/06/06 04:05:24;;;;;;;5.75;2.97;;;;;;;14.60;55.06;100589.19;4983195;28;20030;-72
2022/06/06 04:07:50;;;;;;;8.43;3.20;;;;;;;14.71;54.68;100588.94;5005474;28;20029;-72
2022/06/06 04:10:16;;;;;;;7.72;3.95;;;;;;;14.80;54.87;100577.47;5021904;28;20041;-73
2022/06/06 04:12:56;;;;;;;4.72;3.10;;;;;;;14.93;54.66;100578.03;5021906;28;20029;-72
2022/06/06 04:15:28;;;;;;;4.03;3.45;;;;;;;15.01;54.63;100577.84;5021797;28;20034;-72
2022/06/06 04:18:07;;;;;;;5.03;3.22;;;;;;;15.19;54.31;100581.75;5021515;28;20046;-72
2022/06/06 04:20:37;;;;;;;5.35;3.78;;;;;;;15.34;54.42;100580.53;5022099;28;20029;-73
2022/06/06 04:23:02;;;;;;;5.25;3.80;;;;;;;15.49;54.35;100581.88;5029210;28;20026;-73
2022/06/06 04:25:53;;;;;;;8.40;3.55;;;;;;;15.61;54.04;100575.47;5104486;28;20309;-73
2022/06/06 04:28:31;;;;;;;5.18;4.07;;;;;;;15.60;53.73;100580.75;5104632;28;20008;-72
2022/06/06 04:31:02;;;;;;;8.05;3.83;;;;;;;15.51;54.02;100580.97;5104349;28;20024;-73
2022/06/06 04:33:40;;;;;;;5.90;3.70;;;;;;;15.43;54.39;100571.56;5104258;28;20024;-73
2022/06/06 04:36:41;;;;;;;7.43;4.78;;;;;;;15.52;54.28;100575.72;5086010;28;20439;-73
2022/06/06 04:39:21;;;;;;;8.32;4.70;;;;;;;15.43;54.48;100575.97;5021533;28;20137;-73
2022/06/06 04:41:54;;;;;;;6.60;3.97;;;;;;;15.33;54.81;100578.81;5021337;28;20069;-72
2022/06/06 04:44:35;;;;;;;6.07;3.60;;;;;;;15.24;54.99;100576.41;5021344;28;20049;-73
2022/06/06 04:47:28;;;;;;;8.13;4.93;;;;;;;15.19;55.02;100570.47;5004724;28;20037;-72
2022/06/06 04:49:56;;;;;;;5.55;4.15;;;;;;;15.13;55.29;100575.84;5021681;28;20041;-71
2022/06/06 04:52:22;;;;;;;6.72;4.53;;;;;;;15.08;55.47;100571.56;5021352;28;20076;-72
2022/06/06 04:54:48;;;;;;;6.43;4.13;;;;;;;15.09;55.51;100567.22;5004906;28;20029;-72
2022/06/06 04:57:17;;;;;;;4.18;3.35;;;;;;;15.02;55.94;100566.50;5020969;28;20057;-72
2022/06/06 04:59:44;;;;;;;7.57;4.30;;;;;;;15.11;55.88;100568.88;5021070;28;20544;-70
2022/06/06 05:02:10;;;;;;;6.47;4.00;;;;;;;15.22;55.66;100570.38;5021154;28;20029;-71
2022/06/06 05:04:36;;;;;;;5.20;3.95;;;;;;;15.29;55.46;100566.69;5020929;28;20036;-71
2022/06/06 05:07:04;;;;;;;5.18;3.42;;;;;;;15.34;55.63;100570.06;5020717;28;20034;-72
2022/06/06 05:09:29;;;;;;;6.97;4.28;;;;;;;15.36;55.59;100557.81;5021079;28;20030;-72
2022/06/06 05:12:15;;;;;;;4.65;3.72;;;;;;;15.43;55.96;100558.47;5021577;28;20036;-72
2022/06/06 05:15:12;;;;;;;5.43;4.10;;;;;;;15.60;55.74;100552.81;5103528;28;20031;-73
2022/06/06 05:17:50;;;;;;;5.10;3.70;;;;;;;15.83;55.75;100553.94;5084880;28;20356;-73
2022/06/06 05:20:49;;;;;;;5.15;4.13;;;;;;;16.32;55.74;100549.97;5103563;28;20027;-74
2022/06/06 05:23:40;;;;;;;5.18;4.00;;;;;;;17.04;54.84;100552.97;5085225;28;20024;-71
2022/06/06 05:26:27;;;;;;;6.83;4.33;;;;;;;17.55;53.19;100548.63;5103266;28;20442;-74
2022/06/06 05:29:25;;;;;;;4.40;3.50;;;;;;;18.02;52.86;100543.47;5103500;28;20252;-74
2022/06/06 05:32:09;;;;;;;5.53;3.70;;;;;;;18.82;52.00;100543.91;5071743;28;20034;-73
2022/06/06 05:34:54;;;;;;;4.75;3.58;;;;;;;19.56;49.97;100545.22;5103523;28;20028;-72
2022/06/06 05:37:26;;;;;;;4.00;3.40;;;;;;;20.04;48.17;100547.53;5103245;28;20028;-72
2022/06/06 05:40:45;;;;;;;4.72;3.70;;;;;;;20.33;46.78;100549.72;5103251;28;20047;-73
2022/06/06 05:43:20;;;;;;;5.07;3.50;;;;;;;20.54;46.82;100553.09;5020504;28;20470;-73
2022/06/06 05:45:51;;;;;;;4.53;3.35;;;;;;;20.74;46.07;100548.63;5020342;28;20041;-73
2022/06/06 05:48:29;;;;;;;8.40;3.70;;;;;;;20.94;45.68;100549.47;5020594;28;20026;-73
2022/06/06 05:51:22;;;;;;;4.10;3.30;;;;;;;21.10;45.08;100549.56;5020436;28;20045;-73
2022/06/06 05:54:15;;;;;;;5.57;3.50;;;;;;;21.27;44.42;100551.34;5020762;28;20090;-73
2022/06/06 05:57:06;;;;;;;3.90;3.00;;;;;;;21.51;43.51;100558.91;5020162;28;20050;-69
2022/06/06 05:59:56;;;;;;;4.80;2.75;;;;;;;21.89;43.08;100549.91;5020603;28;20025;-69
2022/06/06 06:02:42;;;;;;;4.97;3.38;;;;;;;22.26;41.32;100554.97;5020593;28;20120;-69
2022/06/06 06:05:16;;;;;;;5.70;2.80;;;;;;;22.43;41.44;100547.03;5020448;28;20073;-69
2022/06/06 06:08:13;;;;;;;3.30;2.60;;;;;;;22.92;40.18;100553.97;5020493;28;20057;-69
2022/06/06 06:10:49;;;;;;;4.70;2.97;;;;;;;22.75;38.23;100550.50;5020338;28;20072;-69
2022/06/06 06:13:14;;;;;;;3.05;2.33;;;;;;;22.54;37.67;100552.56;5020214;28;20022;-68
2022/06/06 06:15:42;;;;;;;2.85;2.42;;;;;;;22.10;38.05;100541.75;5020320;28;20068;-69
2022/06/06 06:18:23;;;;;;;4.45;2.90;;;;;;;21.72;38.96;100545.50;5092984;28;20036;-69
2022/06/06 06:21:08;;;;;;;4.32;2.75;;;;;;;21.53;40.04;100549.09;5103640;28;20016;-70
2022/06/06 06:23:37;;;;;;;3.53;2.67;;;;;;;21.76;39.83;100544.41;5106373;28;20028;-69
2022/06/06 06:26:05;;;;;;;3.72;2.30;;;;;;;21.76;39.06;100535.59;5106901;28;20103;-69
2022/06/06 06:28:34;;;;;;;4.60;2.80;;;;;;;21.79;39.50;100541.63;5106868;28;20020;-69
2022/06/06 06:31:19;;;;;;;3.13;2.33;;;;;;;21.79;39.88;100533.69;5106722;28;20028;-69
2022/06/06 06:34:10;;;;;;;2.97;2.30;;;;;;;21.92;39.49;100533.88;5106496;28;20024;-69
2022/06/06 06:36:41;;;;;;;3.63;2.30;;;;;;;22.16;38.59;100537.91;5106545;28;20020;-69
2022/06/06 06:39:26;;;;;;;5.55;2.45;;;;;;;21.88;38.41;100536.78;5106530;28;20028;-70
2022/06/06 06:42:16;;;;;;;2.95;2.10;;;;;;;21.48;39.39;100535.31;5088299;28;20062;-69
2022/06/06 06:45:08;;;;;;;5.95;2.25;;;;;;;21.55;39.55;100536.69;5106702;28;20468;-69
2022/06/06 06:47:35;;;;;;;2.42;2.15;;;;;;;21.65;38.94;100530.91;5087901;28;20031;-68
2022/06/06 06:50:13;;;;;;;4.80;2.58;;;;;;;21.56;38.67;100537.53;5106417;28;20046;-68
2022/06/06 06:52:59;;;;;;;3.95;2.20;;;;;;;21.42;39.19;100533.00;5106571;28;20024;-69
2022/06/06 06:55:47;;;;;;;3.00;2.15;;;;;;;21.49;39.57;100531.72;5106453;28;20036;-68
2022/06/06 06:58:41;;;;;;;2.72;2.40;;;;;;;21.45;38.68;100538.13;5106122;28;20114;-69
2022/06/06 07:01:18;;;;;;;3.35;1.92;;;;;;;21.20;38.84;100522.69;5106055;28;20046;-68
2022/06/06 07:10:17;;;;;;;3.65;1.90;;;;;;;20.89;39.13;100532.97;5106181;28;20089;-70
2022/06/06 07:13:16;;;;;;;2.70;2.13;;;;;;;21.03;38.59;100529.69;5105959;28;20020;-69
2022/06/06 07:16:02;;;;;;;2.20;1.90;;;;;;;20.93;37.66;100524.00;5087547;28;20030;-69
2022/06/06 07:18:33;;;;;;;3.58;1.80;;;;;;;20.82;38.12;100513.97;5105558;28;20097;-69
2022/06/06 07:21:01;;;;;;;2.50;2.10;;;;;;;20.90;37.55;100516.22;5087638;28;20052;-68
2022/06/06 07:23:33;;;;;;;3.85;2.08;;;;;;;20.85;37.97;100512.94;5105710;28;20048;-68
2022/06/06 07:25:59;;;;;;;2.85;1.75;;;;;;;20.88;36.92;100516.28;5105500;28;20066;-69
2022/06/06 07:28:24;;;;;;;2.35;1.77;;;;;;;20.73;37.79;100515.28;5105889;28;20016;-69
2022/06/06 07:30:50;;;;;;;3.35;1.80;;;;;;;20.82;37.17;100516.59;5105613;28;20027;-69
2022/06/06 07:33:38;;;;;;;2.67;2.00;;;;;;;20.76;37.41;100514.25;5105381;28;20062;-69
2022/06/06 07:36:42;;;;;;;2.05;1.52;;;;;;;20.81;37.17;100521.00;5104879;28;20240;-70
2022/06/06 07:39:26;;;;;;;2.38;1.80;;;;;;;20.91;36.95;100517.94;5090715;28;20032;-71
2022/06/06 07:42:11;;;;;;;2.53;1.88;;;;;;;20.86;37.15;100512.03;5105300;28;20034;-69
2022/06/06 07:44:37;;;;;;;2.35;1.95;;;;;;;20.88;36.93;100516.28;5105473;28;20034;-70
2022/06/06 07:47:34;;;;;;;3.08;1.63;;;;;;;20.91;36.91;100510.88;5105273;28;20027;-69
2022/06/06 07:50:11;;;;;;;2.20;1.60;;;;;;;20.90;36.98;100522.34;5105203;28;20024;-66
2022/06/06 07:52:55;;;;;;;3.33;1.70;;;;;;;20.96;37.10;100515.09;5105000;28;20024;-69
2022/06/06 07:55:26;;;;;;;2.30;1.90;;;;;;;21.07;36.63;100504.81;5105155;28;20026;-68
2022/06/06 07:58:04;;;;;;;2.55;1.88;;;;;;;21.11;36.97;100502.88;5104721;28;20076;-68
2022/06/06 08:00:31;;;;;;;2.42;1.55;;;;;;;21.04;37.13;100503.19;5105106;28;20024;-65
2022/06/06 08:03:15;;;;;;;2.22;1.65;;;;;;;21.02;36.98;100502.41;5104584;28;20028;-64
2022/06/06 08:06:16;;;;;;;2.00;1.45;;;;;;;20.98;37.26;100511.44;5104960;28;20040;-63
2022/06/06 08:08:59;;;;;;;2.67;1.58;;;;;;;20.98;37.20;100500.88;5104871;28;20053;-69
2022/06/06 08:11:39;;;;;;;2.92;1.80;;;;;;;20.88;37.50;100489.91;5086226;28;20028;-68
2022/06/06 08:14:33;;;;;;;2.83;1.73;;;;;;;21.14;37.38;100489.53;5104265;28;20066;-69
2022/06/06 08:17:17;;;;;;;2.67;1.65;;;;;;;21.18;37.01;100499.00;5086600;28;20099;-70
2022/06/06 08:19:55;;;;;;;2.53;1.65;;;;;;;21.22;36.85;100499.69;5104307;28;20032;-69
2022/06/06 08:22:24;;;;;;;2.63;1.77;;;;;;;21.15;37.27;100483.34;5104460;28;20053;-70
2022/06/06 08:24:56;;;;;;;1.70;1.25;;;;;;;21.23;37.03;100477.66;5104529;28;20450;-68
2022/06/06 08:27:26;;;;;;;4.07;1.80;;;;;;;21.36;36.64;100494.53;5104406;28;20020;-69
2022/06/06 08:29:51;;;;;;;1.90;1.35;;;;;;;21.36;36.48;100470.78;5104118;28;20032;-69
2022/06/06 08:32:17;;;;;;;1.88;1.55;;;;;;;21.43;36.37;100481.88;5104086;28;20065;-69
2022/06/06 08:34:43;;;;;;;1.90;1.42;;;;;;;21.46;36.30;100483.50;5104167;28;20039;-70
2022/06/06 08:37:30;;;;;;;2.85;1.80;;;;;;;21.44;36.18;100466.91;5103978;28;20053;-67
2022/06/06 08:39:58;;;;;;;3.03;1.45;;;;;;;21.61;35.47;100471.25;5104104;28;20028;-67
2022/06/06 08:42:38;;;;;;;2.50;1.35;;;;;;;21.58;35.80;100476.72;5104047;28;20036;-69
2022/06/06 08:45:10;;;;;;;2.00;1.35;;;;;;;21.83;35.38;100467.47;5103843;28;20020;-69
2022/06/06 08:48:14;;;;;;;2.50;1.73;;;;;;;21.84;35.12;100461.28;5103699;28;20027;-68
2022/06/06 08:51:18;;;;;;;1.63;1.40;;;;;;;22.04;35.07;100468.06;5104059;28;20047;-68
2022/06/06 08:54:18;;;;;;;2.03;1.60;;;;;;;22.12;34.66;100465.88;5021087;28;20084;-69
2022/06/06 08:57:05;;;;;;;2.92;1.38;;;;;;;22.27;34.11;100468.56;5020563;28;20042;-68
2022/06/06 08:59:46;;;;;;;1.58;1.27;;;;;;;22.27;33.47;100464.13;5020735;28;20026;-70
2022/06/06 09:02:30;;;;;;;1.50;1.23;;;;;;;22.33;32.69;100457.66;5020999;28;20025;-71
2022/06/06 09:04:58;;;;;;;1.65;1.25;;;;;;;22.11;32.83;100466.78;5020523;28;20052;-69
2022/06/06 09:07:45;;;;;;;2.08;1.25;;;;;;;22.17;32.25;100462.97;5020874;28;20037;-69
2022/06/06 09:10:41;;;;;;;1.45;0.95;;;;;;;22.27;31.95;100450.91;5020790;28;20065;-72
2022/06/06 09:13:21;;;;;;;1.13;0.93;;;;;;;22.29;32.01;100451.69;5020694;28;20036;-68
2022/06/06 09:16:18;;;;;;;1.58;1.20;;;;;;;22.37;32.30;100453.00;5020594;28;20026;-70
2022/06/06 09:19:06;;;;;;;2.22;1.30;;;;;;;22.56;32.18;100462.56;5020449;28;20129;-70
2022/06/06 09:21:31;;;;;;;1.20;1.00;;;;;;;22.75;30.78;100457.88;5020636;28;20022;-69
2022/06/06 09:24:24;;;;;;;2.67;1.10;;;;;;;22.56;30.57;100457.25;5020350;28;20037;-69
2022/06/06 09:27:20;;;;;;;1.80;1.33;;;;;;;22.48;30.87;100445.31;5020244;28;20030;-70
2022/06/06 09:30:08;;;;;;;2.22;1.38;;;;;;;22.52;30.87;100441.53;5043492;28;20093;-69
2022/06/06 09:32:57;;;;;;;2.03;1.40;;;;;;;22.53;31.23;100439.75;5076031;28;20115;-68
2022/06/06 09:35:38;;;;;;;2.25;1.05;;;;;;;22.53;31.14;100432.69;5103157;28;20020;-70
2022/06/06 09:38:37;;;;;;;1.23;0.93;;;;;;;22.47;31.10;100438.31;5103181;28;20161;-69
2022/06/06 09:41:41;;;;;;;2.95;1.65;;;;;;;22.43;31.04;100430.66;5103248;28;20097;-69
2022/06/06 09:44:22;;;;;;;1.40;1.20;;;;;;;22.52;30.39;100428.31;5020264;28;20482;-68
2022/06/06 09:46:59;;;;;;;3.03;1.48;;;;;;;22.50;30.75;100446.09;5020097;28;20049;-69
2022/06/06 09:49:53;;;;;;;1.80;1.35;;;;;;;22.53;30.95;100432.69;5020022;28;20026;-69
2022/06/06 09:52:48;;;;;;;1.50;1.13;;;;;;;22.64;30.53;100425.91;5014693;28;20038;-68
2022/06/06 10:01:08;;;;;;;1.85;1.30;;;;;;;22.58;30.97;100429.75;5022948;28;20037;-68
2022/06/06 10:04:01;;;;;;;2.88;1.45;;;;;;;22.58;31.50;100429.75;5022745;28;20061;-68
2022/06/06 10:06:48;;;;;;;3.15;1.35;;;;;;;22.51;31.57;100420.47;5022944;28;20548;-67
2022/06/06 10:09:46;;;;;;;2.17;1.75;;;;;;;22.45;32.41;100418.19;5023000;28;20036;-69
2022/06/06 10:12:36;;;;;;;2.92;1.80;;;;;;;22.52;31.96;100420.38;5022776;28;20022;-68
2022/06/06 10:15:22;;;;;;;2.00;1.60;;;;;;;22.33;32.58;100419.75;5022915;28;20025;-68
2022/06/06 10:18:06;;;;;;;2.28;1.60;;;;;;;22.16;33.16;100417.16;5022290;28;20034;-67
2022/06/06 10:20:48;;;;;;;1.73;1.40;;;;;;;22.14;33.39;100411.09;5089995;28;20036;-69
2022/06/06 10:23:34;;;;;;;;;;;;;;;22.29;33.15;100413.78;5106113;28;20020;-70
2022/06/06 10:26:21;;;;;;;4.15;1.63;;;;;;;22.31;33.32;100419.00;5105657;28;20360;-69
2022/06/06 10:28:52;;;;;;;2.50;1.83;;;;;;;22.32;32.92;100418.06;5105535;28;20015;-68
2022/06/06 10:31:47;;;;;;;3.10;1.50;;;;;;;22.15;33.77;100406.66;5105525;28;20042;-69
2022/06/06 10:34:51;;;;;;;29.08;2.72;;;;;;;22.21;34.12;100414.25;5105173;28;20031;-65
2022/06/06 10:37:35;;;;;;;2.40;1.67;;;;;;;22.25;33.87;100418.41;5022525;28;20193;-72
2022/06/06 10:40:26;;;;;;;2.30;1.30;;;;;;;22.23;34.70;100412.38;5022688;28;20072;-68
2022/06/06 10:43:14;;;;;;;9.00;2.17;;;;;;;22.41;34.74;100406.94;5022196;28;20045;-71
2022/06/06 10:45:58;;;;;;;3.65;1.65;;;;;;;22.57;34.44;100411.34;5022588;28;20267;-69
2022/06/06 10:48:38;;;;;;;3.75;1.70;;;;;;;22.52;34.45;100408.97;5022263;28;20550;-67
2022/06/06 10:54:28;;;;;;;3.83;2.10;;;;;;;22.41;34.50;100409.59;5022415;28;20083;-71
2022/06/06 10:56:53;;;;;;;2.72;2.00;;;;;;;22.26;34.53;100417.47;4981136;28;1196857;-72
2022/06/06 10:59:22;;;;;;;3.17;1.70;;;;;;;22.28;34.33;100398.88;5023260;28;20052;-71
2022/06/06 11:02:24;;;;;;;2.70;1.80;;;;;;;22.14;35.10;100397.03;5023460;28;20049;-71
2022/06/06 11:05:37;;;;;;;2.47;1.88;;;;;;;22.11;35.14;100395.41;5006755;28;20414;-72
2022/06/06 11:08:30;;;;;;;2.60;1.80;;;;;;;22.09;35.11;100399.94;5022837;28;20045;-73
2022/06/06 11:11:13;;;;;;;2.15;1.85;;;;;;;22.15;35.23;100401.38;5023517;28;20041;-71
2022/06/06 11:14:02;;;;;;;2.75;1.73;;;;;;;22.12;35.62;100394.47;5074565;28;20476;-71
2022/06/06 11:17:05;;;;;;;2.67;2.10;;;;;;;22.13;35.49;100398.81;5087448;28;20028;-71
2022/06/06 11:20:02;;;;;;;4.38;1.83;;;;;;;22.16;35.96;100379.28;5105400;28;20020;-71
2022/06/06 11:22:42;;;;;;;2.15;1.75;;;;;;;22.15;36.03;100385.50;5105702;28;20023;-70
2022/06/06 11:25:16;;;;;;;2.95;1.98;;;;;;;22.15;36.03;100374.94;5105781;28;20028;-74
2022/06/06 11:28:11;;;;;;;2.70;1.60;;;;;;;22.16;35.65;100376.63;5105832;28;20271;-70
2022/06/06 11:31:03;;;;;;;4.75;2.00;;;;;;;22.09;35.87;100375.28;5105760;28;20031;-68
2022/06/06 11:33:37;;;;;;;6.82;2.22;;;;;;;22.02;36.37;100377.44;5105500;28;20444;-69
2022/06/06 11:36:26;;;;;;;4.20;1.95;;;;;;;22.02;35.91;100375.66;5105483;28;20085;-70
2022/06/06 11:39:30;;;;;;;2.40;1.73;;;;;;;21.97;36.31;100372.41;5105313;28;20460;-70
2022/06/06 11:42:17;;;;;;;3.90;2.17;;;;;;;22.08;36.35;100368.31;5092675;28;20067;-70
2022/06/06 11:45:10;;;;;;;2.60;2.15;;;;;;;22.06;36.10;100376.31;5105414;28;20075;-73
2022/06/06 11:47:53;;;;;;;3.25;2.30;;;;;;;21.96;36.50;100376.00;5087155;28;20031;-71
2022/06/06 11:50:21;;;;;;;2.30;1.77;;;;;;;22.00;36.47;100380.16;5105601;28;20452;-68
2022/06/06 11:53:15;;;;;;;2.85;2.00;;;;;;;22.08;36.50;100365.69;5105114;28;20024;-68
2022/06/06 11:55:58;;;;;;;4.10;2.15;;;;;;;22.10;36.39;100363.78;5105070;28;20024;-68
2022/06/06 11:58:36;;;;;;;2.90;1.90;;;;;;;22.18;36.52;100380.03;5087981;28;20040;-68
2022/06/06 12:01:11;;;;;;;2.67;2.00;;;;;;;22.33;36.24;100378.31;5104994;28;20024;-68
2022/06/06 12:03:56;;;;;;;2.38;1.80;;;;;;;22.34;36.23;100368.56;5104833;28;20048;-68
2022/06/06 12:06:37;;;;;;;2.75;2.00;;;;;;;22.35;36.45;100379.06;5104866;28;20027;-68
2022/06/06 12:09:27;;;;;;;2.33;1.95;;;;;;;22.37;36.53;100363.97;5087000;28;20084;-66
2022/06/06 12:12:03;;;;;;;2.63;2.00;;;;;;;22.53;35.69;100363.91;5105070;28;20108;-69
2022/06/06 12:14:59;;;;;;;2.90;2.20;;;;;;;22.54;36.15;100373.53;5104585;28;20020;-68
2022/06/06 12:17:59;;;;;;;3.35;2.13;;;;;;;22.66;35.94;100379.06;5104455;28;20028;-70
2022/06/06 12:20:56;;;;;;;6.70;2.08;;;;;;;22.81;35.60;100365.84;5103989;28;20028;-69
2022/06/06 12:23:48;;;;;;;3.13;2.08;;;;;;;22.93;35.83;100370.38;5104827;28;20020;-69
2022/06/06 12:26:42;;;;;;;3.28;2.40;;;;;;;22.97;35.43;100366.59;5104945;28;20024;-69
2022/06/06 12:29:23;;;;;;;2.15;1.92;;;;;;;22.93;35.34;100369.53;5104634;28;20062;-69
2022/06/06 12:31:58;;;;;;;4.28;2.15;;;;;;;23.00;35.23;100365.56;5104444;28;20024;-67
2022/06/06 12:34:46;;;;;;;1.95;1.75;;;;;;;23.11;35.01;100367.56;5104292;28;20035;-69
2022/06/06 12:37:36;;;;;;;2.42;1.83;;;;;;;22.97;34.87;100353.34;5104220;28;20024;-68
2022/06/06 12:40:05;;;;;;;3.10;2.15;;;;;;;22.96;34.56;100359.63;5086080;28;20099;-70
2022/06/06 12:42:58;;;;;;;2.88;2.00;;;;;;;22.87;35.12;100360.19;5104265;28;20536;-69
2022/06/06 12:45:46;;;;;;;3.22;1.80;;;;;;;22.81;34.72;100369.38;5104131;28;20031;-70
2022/06/06 12:48:29;;;;;;;3.45;2.42;;;;;;;22.86;34.89;100351.38;5104159;28;20020;-71
2022/06/06 12:51:27;;;;;;;3.00;2.20;;;;;;;22.93;34.91;100348.34;5104239;28;20054;-66